Time;durP1;ratioP1;P1;durP2;ratioP2;P2;SDS_P1;SDS_P2;PMS_P1;PMS_P2;Temp;Humidity;BMP_temperature;BMP_pressure;BME280_temperature;BME280_humidity;BME280_pressure;Samples;Min_cycle;Max_cycle;Signal;HPM_P1;HPM_P2
2022/01/21 00:00:59;;;;;;;3.50;1.20;;;0.70;99.90;;;;;;4912130;29;20052;-71
2022/01/21 00:03:26;;;;;;;5.40;1.73;;;0.70;99.90;;;;;;4914214;29;20096;-71
2022/01/21 00:05:52;;;;;;;14.48;2.78;;;0.70;99.90;;;;;;4913690;29;20056;-73
2022/01/21 00:08:17;;;;;;;2.90;0.85;;;0.70;99.90;;;;;;4898123;29;20398;-72
2022/01/21 00:10:43;;;;;;;4.80;1.42;;;0.60;99.90;;;;;;4913893;29;20054;-73
2022/01/21 00:13:18;;;;;;;2.05;0.90;;;0.70;99.90;;;;;;4914264;29;20455;-73
2022/01/21 00:15:44;;;;;;;4.85;1.67;;;0.60;99.90;;;;;;4882256;29;20095;-72
2022/01/21 00:18:11;;;;;;;3.92;0.77;;;0.70;99.90;;;;;;4914117;29;20082;-73
2022/01/21 00:31:33;;;;;;;15.00;2.83;;;0.90;99.90;;;;;;4936787;29;20055;-73
2022/01/21 00:33:59;;;;;;;5.07;1.23;;;1.30;99.90;;;;;;4954424;29;20130;-72
2022/01/21 00:36:24;;;;;;;7.20;1.23;;;1.00;99.90;;;;;;4938567;29;20043;-72
2022/01/21 00:38:50;;;;;;;3.55;0.90;;;0.90;99.90;;;;;;4940325;29;20321;-71
2022/01/21 00:41:21;;;;;;;6.78;0.90;;;0.90;99.90;;;;;;4940459;29;20122;-72
2022/01/21 00:43:47;;;;;;;3.80;1.02;;;0.90;99.90;;;;;;4957606;29;20055;-73
2022/01/21 00:46:13;;;;;;;4.93;1.08;;;0.90;99.90;;;;;;4957295;29;20130;-72
2022/01/21 00:48:39;;;;;;;4.70;0.90;;;0.80;99.90;;;;;;4939879;29;20129;-71
2022/01/21 00:51:06;;;;;;;3.53;0.82;;;0.90;99.90;;;;;;4940209;29;20051;-73
2022/01/21 00:53:32;;;;;;;4.00;1.00;;;0.80;99.90;;;;;;4957315;29;20043;-72
2022/01/21 00:55:57;;;;;;;4.72;1.35;;;0.70;99.90;;;;;;4940419;29;20074;-71
2022/01/21 00:58:23;;;;;;;6.30;1.08;;;0.70;99.90;;;;;;4957365;29;20471;-71
2022/01/21 01:00:49;;;;;;;6.43;1.60;;;0.70;99.90;;;;;;4957175;29;20082;-71
2022/01/21 01:03:19;;;;;;;4.20;1.40;;;0.80;99.90;;;;;;4957046;29;20130;-69
2022/01/21 01:05:51;;;;;;;5.15;1.75;;;0.70;99.90;;;;;;4940102;29;20043;-73
2022/01/21 01:08:17;;;;;;;9.98;1.95;;;0.70;99.90;;;;;;4956621;29;20515;-72
2022/01/21 01:21:22;;;;;;;7.50;2.03;;;0.60;99.90;;;;;;4956908;29;20480;-73
2022/01/21 01:29:17;;;;;;;3.40;1.58;;;0.60;99.90;;;;;;4956746;29;20055;-77
2022/01/21 01:31:43;;;;;;;3.00;0.95;;;0.50;99.90;;;;;;4956815;29;20494;-73
2022/01/21 01:34:09;;;;;;;10.30;1.88;;;0.50;99.90;;;;;;4956606;29;20126;-78
2022/01/21 01:36:35;;;;;;;6.03;1.45;;;0.50;99.90;;;;;;4956680;29;20179;-77
2022/01/21 01:39:15;;;;;;;6.28;1.50;;;0.60;99.90;;;;;;4956920;29;20170;-73
2022/01/21 01:42:00;;;;;;;9.18;1.23;;;0.60;99.90;;;;;;4956327;29;20479;-73
2022/01/21 01:49:54;;;;;;;16.90;3.35;;;0.90;99.90;;;;;;4966958;28;20058;-74
2022/01/21 01:52:20;;;;;;;5.90;1.90;;;0.90;99.90;;;;;;4951569;29;20055;-73
2022/01/21 01:54:49;;;;;;;8.95;3.03;;;1.00;99.90;;;;;;4963511;29;20086;-71
2022/01/21 01:57:15;;;;;;;7.07;2.67;;;1.00;99.90;;;;;;4957391;29;20047;-73
2022/01/21 01:59:41;;;;;;;5.93;1.30;;;1.10;99.90;;;;;;4957067;29;20133;-72
2022/01/21 02:02:12;;;;;;;3.85;0.90;;;1.10;99.90;;;;;;4956009;29;20130;-74
2022/01/21 02:04:39;;;;;;;5.28;1.48;;;1.20;99.90;;;;;;4938354;29;20055;-74
2022/01/21 02:07:06;;;;;;;1.55;0.47;;;1.70;99.90;;;;;;4938772;29;20067;-71
2022/01/21 02:09:33;;;;;;;1.88;0.73;;;1.30;99.90;;;;;;4956346;29;20051;-72
2022/01/21 02:11:59;;;;;;;2.67;1.02;;;1.40;99.90;;;;;;4955836;29;20036;-72
2022/01/21 02:14:32;;;;;;;4.15;1.17;;;1.40;99.90;;;;;;4955956;29;20127;-73
2022/01/21 02:22:09;;;;;;;1.85;0.85;;;1.50;99.90;;;;;;4955837;29;20126;-71
2022/01/21 02:24:59;;;;;;;0.85;0.47;;;1.50;99.90;;;;;;4955876;29;20062;-72
2022/01/21 02:27:20;;;;;;;1.88;0.98;;;1.50;99.90;;;;;;4954614;28;20063;-76
2022/01/21 02:29:49;;;;;;;1.75;0.60;;;1.50;99.90;;;;;;4955791;29;20044;-71
2022/01/21 02:32:15;;;;;;;2.22;1.15;;;1.40;99.90;;;;;;4955636;29;20090;-73
2022/01/21 02:34:42;;;;;;;5.03;1.70;;;1.40;99.90;;;;;;4955505;29;20491;-71
2022/01/21 02:37:10;;;;;;;5.28;0.80;;;1.40;99.90;;;;;;4955686;29;20047;-71
2022/01/21 02:39:36;;;;;;;2.88;0.85;;;1.30;99.90;;;;;;4955549;29;20039;-70
2022/01/21 02:42:02;;;;;;;7.78;1.20;;;1.20;99.90;;;;;;4955435;29;20603;-71
2022/01/21 02:44:28;;;;;;;2.88;1.00;;;1.20;99.90;;;;;;4938152;29;20047;-71
2022/01/21 02:46:57;;;;;;;5.22;0.98;;;1.10;99.90;;;;;;4937670;29;20488;-71
2022/01/21 02:49:23;;;;;;;2.95;1.17;;;1.10;99.90;;;;;;4955456;29;20058;-71
2022/01/21 02:51:51;;;;;;;6.75;1.30;;;1.10;99.90;;;;;;4955285;29;20055;-71
2022/01/21 02:54:17;;;;;;;1.13;0.63;;;1.00;99.90;;;;;;4955310;29;20036;-71
2022/01/21 02:56:42;;;;;;;3.50;0.95;;;1.10;99.90;;;;;;4955183;29;20058;-72
2022/01/21 02:59:09;;;;;;;3.30;1.15;;;1.50;99.90;;;;;;4936947;29;20126;-70
2022/01/21 03:01:37;;;;;;;5.78;0.95;;;1.00;99.90;;;;;;4937876;29;20059;-71
2022/01/21 03:04:04;;;;;;;3.25;1.20;;;1.00;99.90;;;;;;4955084;28;20062;-71
2022/01/21 03:06:31;;;;;;;2.47;0.85;;;1.00;99.90;;;;;;4955202;29;20055;-72
2022/01/21 03:08:58;;;;;;;0.93;0.50;;;1.00;99.90;;;;;;4937700;29;20091;-71
2022/01/21 03:11:26;;;;;;;6.07;0.95;;;0.90;99.90;;;;;;4954725;29;20054;-71
2022/01/21 03:13:52;;;;;;;2.45;0.90;;;1.00;99.90;;;;;;4954648;29;20562;-70
2022/01/21 03:16:18;;;;;;;0.60;0.45;;;0.90;99.90;;;;;;4954707;29;20402;-71
2022/01/21 03:18:44;;;;;;;1.80;0.75;;;1.00;99.90;;;;;;4937687;29;20122;-71
2022/01/21 03:21:15;;;;;;;5.22;0.95;;;0.90;99.90;;;;;;4954755;29;20043;-72
2022/01/21 03:23:46;;;;;;;3.50;0.77;;;0.90;99.90;;;;;;4954846;29;20059;-71
2022/01/21 03:26:16;;;;;;;7.18;0.82;;;0.90;99.90;;;;;;4954539;29;20122;-70
2022/01/21 03:28:44;;;;;;;7.68;0.90;;;0.90;99.90;;;;;;4955056;29;20447;-71
2022/01/21 03:31:10;;;;;;;1.73;0.57;;;1.00;99.90;;;;;;4954138;29;20086;-73
2022/01/21 03:33:35;;;;;;;3.72;0.70;;;1.00;99.90;;;;;;4954733;29;20047;-73
2022/01/21 03:36:01;;;;;;;2.33;0.68;;;1.00;99.90;;;;;;4954801;29;20058;-72
2022/01/21 03:38:28;;;;;;;1.05;0.60;;;1.00;99.90;;;;;;4954655;29;20039;-70
2022/01/21 03:40:54;;;;;;;3.10;1.10;;;1.10;99.90;;;;;;4954440;29;20086;-71
2022/01/21 03:43:21;;;;;;;9.43;1.23;;;1.10;99.90;;;;;;4955064;29;20406;-72
2022/01/21 03:45:48;;;;;;;4.90;1.33;;;1.10;99.90;;;;;;4954105;29;20047;-71
2022/01/21 03:48:14;;;;;;;1.77;0.57;;;1.20;99.90;;;;;;4954491;29;20090;-71
2022/01/21 03:50:40;;;;;;;2.17;0.85;;;1.20;99.90;;;;;;4954611;29;20039;-71
2022/01/21 03:53:06;;;;;;;4.03;0.85;;;1.30;99.90;;;;;;4954362;29;20047;-71
2022/01/21 03:55:32;;;;;;;7.53;1.02;;;1.30;99.90;;;;;;4954345;29;20047;-71
2022/01/21 03:57:59;;;;;;;0.60;0.40;;;1.40;99.90;;;;;;4954564;29;20046;-70
2022/01/21 04:00:34;;;;;;;2.22;0.40;;;1.40;99.90;;;;;;4936984;29;20106;-71
2022/01/21 04:03:00;;;;;;;4.20;0.60;;;1.40;99.90;;;;;;4954152;29;20453;-71
2022/01/21 04:05:27;;;;;;;1.05;0.30;;;1.40;99.90;;;;;;4954326;29;20083;-71
2022/01/21 04:07:53;;;;;;;1.13;0.43;;;1.40;99.90;;;;;;4954011;29;20126;-72
2022/01/21 04:10:19;;;;;;;2.20;0.47;;;1.40;99.90;;;;;;4956402;28;20697;-73
2022/01/21 04:12:45;;;;;;;2.38;0.60;;;1.40;99.90;;;;;;4958236;29;20058;-70
2022/01/21 04:15:11;;;;;;;0.70;0.40;;;1.30;99.90;;;;;;4941077;29;20066;-71
2022/01/21 04:17:37;;;;;;;3.72;0.60;;;1.30;99.90;;;;;;4957843;29;20078;-73
2022/01/21 04:20:04;;;;;;;5.25;0.50;;;1.20;99.90;;;;;;4958123;29;20040;-71
2022/01/21 04:22:30;;;;;;;2.08;0.60;;;1.20;99.90;;;;;;4958008;29;20047;-72
2022/01/21 04:24:56;;;;;;;0.50;0.47;;;1.20;99.90;;;;;;4924787;29;20114;-72
2022/01/21 04:27:22;;;;;;;0.30;0.30;;;1.20;99.90;;;;;;4958089;29;20062;-71
2022/01/21 04:29:47;;;;;;;2.13;1.10;;;1.10;99.90;;;;;;4957872;29;20075;-73
2022/01/21 04:32:15;;;;;;;2.67;0.52;;;1.10;99.90;;;;;;4957838;29;20047;-71
2022/01/21 04:34:41;;;;;;;2.40;0.95;;;1.10;99.90;;;;;;4957459;29;20443;-72
2022/01/21 04:37:09;;;;;;;4.60;0.65;;;1.10;99.90;;;;;;4940385;29;20106;-71
2022/01/21 04:39:40;;;;;;;8.07;1.25;;;1.20;99.90;;;;;;4957550;29;20090;-73
2022/01/21 04:47:34;;;;;;;0.45;0.40;;;1.10;99.90;;;;;;4957617;29;20047;-71
2022/01/21 04:50:01;;;;;;;3.40;0.40;;;1.00;99.90;;;;;;4956947;29;20050;-73
2022/01/21 04:52:27;;;;;;;2.95;0.82;;;1.00;99.90;;;;;;4940121;29;20035;-71
2022/01/21 04:54:53;;;;;;;2.55;0.90;;;0.90;99.90;;;;;;4940171;29;20055;-71
2022/01/21 04:57:19;;;;;;;1.42;0.95;;;0.90;99.90;;;;;;4957374;29;20050;-71
2022/01/21 04:59:46;;;;;;;1.75;1.02;;;0.90;99.90;;;;;;4940524;29;20055;-69
2022/01/21 05:02:12;;;;;;;2.45;0.70;;;0.90;99.90;;;;;;4957394;29;20094;-72
2022/01/21 05:04:38;;;;;;;5.38;2.15;;;1.00;99.90;;;;;;4956611;29;20039;-71
2022/01/21 05:07:07;;;;;;;7.70;1.40;;;1.00;99.90;;;;;;4956951;29;20118;-72
2022/01/21 05:09:35;;;;;;;2.63;0.80;;;1.60;99.90;;;;;;4957457;29;20052;-71
2022/01/21 05:12:06;;;;;;;3.63;1.10;;;1.10;99.90;;;;;;4957270;29;20051;-72
2022/01/21 05:17:09;;;;;;;8.85;1.80;;;1.20;99.90;;;;;;4940008;29;20059;-77
2022/01/21 05:19:35;;;;;;;3.55;1.33;;;1.20;99.90;;;;;;4956699;29;20554;-72
2022/01/21 05:22:01;;;;;;;4.82;1.20;;;1.20;99.90;;;;;;4956131;28;20124;-75
2022/01/21 05:24:28;;;;;;;1.30;0.52;;;1.10;99.90;;;;;;4939779;29;20126;-71
2022/01/21 05:26:56;;;;;;;7.15;0.90;;;1.10;99.90;;;;;;4956674;29;20501;-73
2022/01/21 05:29:25;;;;;;;3.17;0.82;;;1.10;99.90;;;;;;4956851;29;20562;-74
2022/01/21 05:31:50;;;;;;;4.22;1.15;;;1.00;99.90;;;;;;4956671;29;20483;-77
2022/01/21 05:34:16;;;;;;;2.13;0.93;;;1.00;99.90;;;;;;4939365;29;20039;-78
2022/01/21 05:36:42;;;;;;;3.92;0.75;;;1.00;99.90;;;;;;4939062;29;20134;-74
2022/01/21 05:39:09;;;;;;;5.72;0.73;;;1.10;99.90;;;;;;4956714;29;20039;-71
2022/01/21 05:41:35;;;;;;;1.85;0.73;;;1.10;99.90;;;;;;4956894;29;20051;-80
2022/01/21 05:44:06;;;;;;;1.10;0.40;;;1.10;99.90;;;;;;4956698;29;20137;-78
2022/01/21 05:47:04;;;;;;;3.70;1.08;;;1.20;99.90;;;;;;4956343;29;20047;-75
2022/01/21 05:49:25;;;;;;;1.50;0.60;;;1.20;99.90;;;;;;4952557;29;20054;-80
2022/01/21 05:52:02;;;;;;;4.68;0.70;;;1.10;99.90;;;;;;4956053;29;20039;-77
2022/01/21 05:54:28;;;;;;;2.17;0.65;;;1.10;99.90;;;;;;4956685;29;20051;-80
2022/01/21 05:56:54;;;;;;;4.22;0.75;;;1.00;99.90;;;;;;4948331;29;20043;-80
2022/01/21 05:59:20;;;;;;;5.10;0.60;;;1.00;99.90;;;;;;4965217;29;20043;-72
2022/01/21 06:01:46;;;;;;;3.60;0.68;;;0.90;99.90;;;;;;4964929;29;20049;-72
2022/01/21 06:04:12;;;;;;;1.05;0.43;;;0.90;99.90;;;;;;4939497;29;20047;-70
2022/01/21 06:06:37;;;;;;;0.98;0.35;;;0.80;99.90;;;;;;4939322;29;20043;-73
2022/01/21 06:09:10;;;;;;;3.03;0.40;;;0.80;99.90;;;;;;4939128;29;20373;-72
2022/01/21 06:11:36;;;;;;;0.70;0.55;;;0.80;99.90;;;;;;4938766;29;20051;-72
2022/01/21 06:14:03;;;;;;;0.63;0.50;;;0.80;99.90;;;;;;4938464;29;20062;-73
2022/01/21 06:16:29;;;;;;;3.35;0.38;;;0.70;99.90;;;;;;4956161;29;20181;-71
2022/01/21 06:18:55;;;;;;;3.20;0.70;;;0.70;99.90;;;;;;4939026;29;20090;-71
2022/01/21 06:21:21;;;;;;;2.15;0.82;;;0.70;99.90;;;;;;4938974;29;20057;-71
2022/01/21 06:23:47;;;;;;;0.98;0.43;;;0.70;99.90;;;;;;4955299;29;20043;-69
2022/01/21 06:26:13;;;;;;;2.63;0.60;;;0.70;99.90;;;;;;4955573;29;20407;-72
2022/01/21 06:28:39;;;;;;;1.85;0.70;;;0.70;99.90;;;;;;4955796;29;20055;-71
2022/01/21 06:31:05;;;;;;;0.45;0.43;;;0.60;99.90;;;;;;4955545;29;20090;-70
2022/01/21 06:33:31;;;;;;;3.42;0.80;;;0.60;99.90;;;;;;4954779;28;20050;-71
2022/01/21 06:35:57;;;;;;;0.98;0.47;;;0.60;99.90;;;;;;4955889;29;20054;-72
2022/01/21 06:38:24;;;;;;;2.33;0.73;;;0.60;99.90;;;;;;4934804;29;20051;-71
2022/01/21 06:40:50;;;;;;;0.57;0.40;;;1.10;99.90;;;;;;4937725;29;20059;-72
2022/01/21 06:43:16;;;;;;;4.28;0.75;;;0.50;99.90;;;;;;4955306;29;20102;-74
2022/01/21 06:45:42;;;;;;;9.35;1.25;;;0.60;99.90;;;;;;4954550;29;20047;-74
2022/01/21 06:48:08;;;;;;;9.07;1.25;;;0.60;99.90;;;;;;4954805;29;20069;-74
2022/01/21 06:50:37;;;;;;;15.20;1.98;;;0.60;99.90;;;;;;4936771;29;20496;-71
2022/01/21 06:53:03;;;;;;;7.03;1.35;;;1.00;99.90;;;;;;4954784;29;20103;-75
2022/01/21 06:55:29;;;;;;;10.75;1.70;;;0.60;99.90;;;;;;4953795;29;20134;-74
2022/01/21 06:57:55;;;;;;;10.38;1.85;;;0.60;99.90;;;;;;4937345;29;20143;-75
2022/01/21 07:00:21;;;;;;;10.98;1.63;;;0.60;99.90;;;;;;4954153;29;20051;-74
2022/01/21 07:02:48;;;;;;;8.00;1.40;;;0.60;99.90;;;;;;4954176;29;20047;-74
2022/01/21 07:05:16;;;;;;;7.35;1.25;;;0.60;99.90;;;;;;4954478;29;20122;-75
2022/01/21 07:07:42;;;;;;;9.13;2.30;;;0.60;99.90;;;;;;4934599;29;20063;-75
2022/01/21 07:10:11;;;;;;;9.15;1.90;;;0.60;99.90;;;;;;4935307;29;20058;-72
2022/01/21 07:12:37;;;;;;;7.78;1.38;;;0.60;99.90;;;;;;4954821;29;20106;-75
2022/01/21 07:15:08;;;;;;;10.82;1.42;;;0.60;99.90;;;;;;4937729;29;20380;-73
2022/01/21 07:17:34;;;;;;;8.13;1.90;;;0.60;99.90;;;;;;4955176;29;20043;-75
2022/01/21 07:20:00;;;;;;;10.73;1.55;;;0.60;99.90;;;;;;4938004;29;20058;-75
2022/01/21 07:22:26;;;;;;;11.75;1.42;;;0.60;99.90;;;;;;4937548;29;20051;-75
2022/01/21 07:24:52;;;;;;;9.48;1.10;;;0.50;99.90;;;;;;4937773;29;20051;-74
2022/01/21 07:27:18;;;;;;;11.10;2.15;;;0.50;99.90;;;;;;4954338;29;20047;-74
2022/01/21 07:29:43;;;;;;;10.23;2.47;;;0.50;99.90;;;;;;4954547;29;20058;-73
2022/01/21 07:32:09;;;;;;;14.07;2.25;;;0.50;99.90;;;;;;4954890;29;20043;-75
2022/01/21 07:34:35;;;;;;;9.60;2.28;;;0.50;99.90;;;;;;4937644;29;20083;-74
2022/01/21 07:37:01;;;;;;;10.43;2.22;;;0.60;99.90;;;;;;4937511;29;20051;-74
2022/01/21 07:39:26;;;;;;;11.60;2.03;;;0.60;99.90;;;;;;4954520;29;20051;-74
2022/01/21 07:41:52;;;;;;;12.82;2.78;;;0.60;99.90;;;;;;4954396;29;20392;-74
2022/01/21 07:44:18;;;;;;;9.10;1.80;;;0.70;99.90;;;;;;4953938;28;20043;-73
2022/01/21 07:46:45;;;;;;;11.85;2.17;;;0.70;99.90;;;;;;4937129;29;20411;-73
2022/01/21 07:49:16;;;;;;;8.90;2.17;;;0.70;99.90;;;;;;4951442;29;20118;-74
2022/01/21 07:51:43;;;;;;;15.95;2.65;;;0.70;99.90;;;;;;4935067;29;20051;-74
2022/01/21 07:54:09;;;;;;;10.25;2.05;;;0.70;99.90;;;;;;4935434;29;20055;-73
2022/01/21 07:56:36;;;;;;;15.07;2.33;;;2.20;99.90;;;;;;4946100;29;20424;-68
2022/01/21 07:59:05;;;;;;;18.50;2.58;;;0.80;99.90;;;;;;4952883;29;20055;-71
2022/01/21 08:01:31;;;;;;;9.70;2.13;;;0.50;99.90;;;;;;4953285;29;20062;-70
2022/01/21 08:03:57;;;;;;;11.32;1.77;;;0.60;99.90;;;;;;4953592;29;20440;-69
2022/01/21 08:06:23;;;;;;;11.93;2.35;;;0.70;99.90;;;;;;4936451;29;20043;-73
2022/01/21 08:08:49;;;;;;;12.23;2.10;;;0.70;99.90;;;;;;4953137;29;20202;-70
2022/01/21 08:11:15;;;;;;;13.10;2.22;;;2.30;99.90;;;;;;4953578;29;20058;-70
2022/01/21 08:13:40;;;;;;;14.00;2.15;;;0.90;99.90;;;;;;4953288;29;20492;-73
2022/01/21 08:16:06;;;;;;;11.65;2.58;;;0.70;99.90;;;;;;4953185;29;20054;-71
2022/01/21 08:18:32;;;;;;;10.70;2.03;;;0.70;99.90;;;;;;4953634;29;20083;-71
2022/01/21 08:20:57;;;;;;;8.90;1.70;;;0.70;99.90;;;;;;4952310;29;20048;-71
2022/01/21 08:23:23;;;;;;;13.98;1.60;;;0.70;99.90;;;;;;4952835;29;20098;-71
2022/01/21 08:25:49;;;;;;;11.27;1.73;;;0.70;99.90;;;;;;4952534;29;20039;-70
2022/01/21 08:28:14;;;;;;;15.55;2.00;;;0.70;99.90;;;;;;4935083;29;20048;-71
2022/01/21 08:30:40;;;;;;;6.95;1.40;;;0.70;99.90;;;;;;4952285;29;20054;-72
2022/01/21 08:33:06;;;;;;;12.13;1.65;;;0.70;99.90;;;;;;4952413;29;20153;-71
2022/01/21 08:35:33;;;;;;;10.30;1.63;;;0.70;99.90;;;;;;4952493;29;20160;-70
2022/01/21 08:37:59;;;;;;;11.77;1.60;;;0.70;99.90;;;;;;4935206;29;20163;-71
2022/01/21 08:40:26;;;;;;;15.63;1.70;;;0.80;99.90;;;;;;4935713;29;20122;-70
2022/01/21 08:42:52;;;;;;;14.20;2.08;;;0.80;99.90;;;;;;4952743;29;20054;-72
2022/01/21 08:45:18;;;;;;;9.32;1.58;;;0.90;99.90;;;;;;4952712;29;20665;-74
2022/01/21 08:47:43;;;;;;;13.55;2.03;;;2.10;99.90;;;;;;4936129;29;20054;-74
2022/01/21 08:50:17;;;;;;;6.57;1.50;;;1.00;99.90;;;;;;4953063;29;20045;-73
2022/01/21 08:52:43;;;;;;;12.13;1.70;;;1.00;99.90;;;;;;4935980;29;20134;-74
2022/01/21 08:55:12;;;;;;;11.85;1.80;;;1.20;99.90;;;;;;4953045;29;20126;-74
2022/01/21 08:57:41;;;;;;;11.15;1.90;;;1.30;99.90;;;;;;4932835;29;20056;-72
2022/01/21 09:00:10;;;;;;;8.20;1.90;;;1.30;99.90;;;;;;4928365;29;20117;-71
2022/01/21 09:02:36;;;;;;;9.52;1.73;;;1.40;99.90;;;;;;4934154;29;20058;-75
2022/01/21 09:05:21;;;;;;;15.07;2.00;;;1.50;99.90;;;;;;4954581;29;20410;-74
2022/01/21 09:07:46;;;;;;;11.45;2.00;;;1.60;99.90;;;;;;4954651;29;20078;-72
2022/01/21 09:10:14;;;;;;;13.77;2.15;;;1.70;99.90;;;;;;4953895;29;20130;-72
2022/01/21 09:12:39;;;;;;;12.77;3.75;;;1.80;99.90;;;;;;4953030;29;20125;-74
2022/01/21 09:15:06;;;;;;;12.20;1.77;;;1.80;99.90;;;;;;4936732;29;20610;-71
2022/01/21 09:17:35;;;;;;;14.85;2.28;;;1.80;99.90;;;;;;4953762;29;20507;-75
2022/01/21 09:20:00;;;;;;;14.32;2.03;;;1.90;99.90;;;;;;4954115;29;20047;-74
2022/01/21 09:22:26;;;;;;;16.33;2.00;;;2.00;99.90;;;;;;4952018;29;20384;-70
2022/01/21 09:24:52;;;;;;;16.10;2.20;;;2.00;99.90;;;;;;4933154;29;20031;-72
2022/01/21 09:27:17;;;;;;;10.75;1.98;;;2.00;99.90;;;;;;4937226;29;20079;-74
2022/01/21 09:29:43;;;;;;;19.98;2.42;;;2.10;99.90;;;;;;4936829;29;20055;-72
2022/01/21 09:32:09;;;;;;;16.63;2.83;;;2.10;99.90;;;;;;4952433;29;20518;-73
2022/01/21 09:34:34;;;;;;;16.73;2.38;;;2.20;99.90;;;;;;4951930;29;20404;-74
2022/01/21 09:37:02;;;;;;;17.38;2.70;;;2.20;99.90;;;;;;4954057;29;20498;-74
2022/01/21 09:39:29;;;;;;;13.75;2.22;;;2.40;99.90;;;;;;4954217;29;20108;-78
2022/01/21 09:41:58;;;;;;;12.25;2.42;;;2.30;99.90;;;;;;4935932;29;20058;-74
2022/01/21 09:44:25;;;;;;;16.90;2.28;;;2.40;99.90;;;;;;4935447;29;20054;-76
2022/01/21 09:46:53;;;;;;;14.15;2.30;;;2.40;99.90;;;;;;4954053;29;20141;-73
2022/01/21 09:52:02;;;;;;;12.80;2.30;;;2.40;99.90;;;;;;4936369;29;20059;-72
2022/01/21 09:54:34;;;;;;;11.85;2.08;;;2.50;99.90;;;;;;4953362;29;20115;-75
2022/01/21 09:57:01;;;;;;;12.75;2.22;;;2.50;99.90;;;;;;4945673;29;20047;-76
2022/01/21 09:59:30;;;;;;;13.68;1.98;;;2.50;99.90;;;;;;4969186;28;20055;-77
2022/01/21 10:01:58;;;;;;;18.70;2.58;;;2.70;99.90;;;;;;4946284;29;20200;-73
2022/01/21 10:04:33;;;;;;;12.98;2.03;;;2.60;99.90;;;;;;4952366;29;20495;-73
2022/01/21 10:07:00;;;;;;;17.65;2.47;;;2.60;99.90;;;;;;4950462;28;20484;-74
2022/01/21 10:09:26;;;;;;;15.77;2.40;;;2.70;99.90;;;;;;4931404;29;20066;-72
2022/01/21 10:11:53;;;;;;;16.15;2.40;;;2.70;99.90;;;;;;4954922;29;20356;-73
2022/01/21 10:14:25;;;;;;;17.17;2.60;;;2.80;99.90;;;;;;4952248;29;20134;-72
2022/01/21 10:16:51;;;;;;;15.10;2.25;;;2.90;99.90;;;;;;4949927;29;20047;-72
2022/01/21 10:19:32;;;;;;;14.45;2.58;;;2.90;99.90;;;;;;4935867;29;20085;-73
2022/01/21 10:22:01;;;;;;;13.15;2.33;;;3.00;99.90;;;;;;4935526;29;20047;-75
2022/01/21 10:24:27;;;;;;;18.63;2.92;;;3.00;99.90;;;;;;4934439;29;20098;-73
2022/01/21 10:26:55;;;;;;;19.83;2.45;;;3.10;99.90;;;;;;4918965;29;20141;-75
2022/01/21 10:29:22;;;;;;;18.83;2.50;;;3.20;99.90;;;;;;4952961;29;20058;-74
2022/01/21 10:32:00;;;;;;;12.80;3.15;;;3.30;99.90;;;;;;4932211;29;20509;-70
2022/01/21 10:34:35;;;;;;;19.83;2.70;;;3.40;99.90;;;;;;4950978;29;20043;-72
2022/01/21 10:37:07;;;;;;;10.45;1.98;;;3.50;99.90;;;;;;4935817;29;20396;-73
2022/01/21 10:39:52;;;;;;;;;;;3.60;99.90;;;;;;4936155;29;20058;-73
2022/01/21 10:42:26;;;;;;;18.23;3.22;;;3.70;99.90;;;;;;4951924;29;20438;-75
2022/01/21 10:44:51;;;;;;;19.90;2.42;;;3.80;99.90;;;;;;4953078;29;20043;-73
2022/01/21 10:47:17;;;;;;;11.35;2.03;;;3.90;99.90;;;;;;4937434;29;20062;-74
2022/01/21 10:50:05;;;;;;;18.02;3.22;;;3.90;99.90;;;;;;4951010;29;20051;-73
2022/01/21 10:52:38;;;;;;;15.25;2.83;;;4.10;99.90;;;;;;4948388;29;20566;-74
2022/01/21 10:55:24;;;;;;;19.60;3.45;;;4.60;99.90;;;;;;4947772;29;20141;-72
2022/01/21 10:58:03;;;;;;;18.73;3.72;;;4.20;99.90;;;;;;4932397;29;20047;-75
2022/01/21 11:00:29;;;;;;;19.98;3.40;;;4.30;99.90;;;;;;4934145;29;20039;-69
2022/01/21 11:02:55;;;;;;;17.70;3.03;;;4.40;99.90;;;;;;4949972;29;20503;-69
2022/01/21 11:05:21;;;;;;;15.75;2.58;;;4.40;99.90;;;;;;4951332;29;20138;-71
2022/01/21 11:08:02;;;;;;;15.52;2.35;;;4.50;99.90;;;;;;4934252;29;20590;-74
2022/01/21 11:10:37;;;;;;;12.70;2.85;;;4.50;99.90;;;;;;4930694;29;20051;-73
2022/01/21 11:13:23;;;;;;;18.08;2.83;;;4.50;99.90;;;;;;4932601;29;20042;-71
2022/01/21 11:15:50;;;;;;;18.50;3.03;;;4.60;99.90;;;;;;4934243;29;20448;-70
2022/01/21 11:18:19;;;;;;;17.70;3.40;;;4.50;99.90;;;;;;4951468;29;20051;-71
2022/01/21 11:20:49;;;;;;;17.42;3.33;;;4.40;99.90;;;;;;4949528;28;20340;-71
2022/01/21 11:23:17;;;;;;;16.25;3.17;;;4.40;99.90;;;;;;4949306;29;20082;-70
2022/01/21 11:25:45;;;;;;;18.92;3.47;;;4.40;99.90;;;;;;4918125;29;20134;-72
2022/01/21 11:28:13;;;;;;;17.13;3.33;;;4.40;99.90;;;;;;4933349;29;20047;-69
2022/01/21 11:30:39;;;;;;;15.60;3.20;;;4.40;99.90;;;;;;4930302;29;20043;-71
2022/01/21 11:33:05;;;;;;;13.55;2.67;;;4.40;99.90;;;;;;4949727;29;20101;-73
2022/01/21 11:35:32;;;;;;;11.80;2.38;;;4.40;99.90;;;;;;4951996;29;20040;-74
2022/01/21 11:38:00;;;;;;;12.25;2.88;;;4.50;99.90;;;;;;4950678;29;20448;-74
2022/01/21 11:40:26;;;;;;;18.88;3.10;;;4.50;99.90;;;;;;4951971;29;20039;-73
2022/01/21 11:42:52;;;;;;;17.35;4.10;;;4.60;99.90;;;;;;4950579;29;20455;-75
2022/01/21 11:45:31;;;;;;;16.73;4.35;;;4.70;99.90;;;;;;4950313;29;20415;-73
2022/01/21 11:50:37;;;;;;;19.92;4.80;;;4.70;99.90;;;;;;4930924;29;20549;-71
2022/01/21 11:53:05;;;;;;;19.15;4.22;;;4.70;99.90;;;;;;4947326;29;20051;-72
2022/01/21 11:55:38;;;;;;;14.77;3.50;;;4.70;99.90;;;;;;4948900;29;20859;-74
2022/01/21 11:58:13;;;;;;;14.15;2.90;;;4.70;99.90;;;;;;4947907;29;20051;-71
2022/01/21 12:00:40;;;;;;;12.90;3.17;;;4.70;99.90;;;;;;4947504;29;20040;-77
2022/01/21 12:03:06;;;;;;;14.30;3.05;;;4.80;99.90;;;;;;4929564;29;20059;-77
2022/01/21 12:05:33;;;;;;;11.27;2.67;;;5.10;99.90;;;;;;4931621;29;20035;-76
2022/01/21 12:08:37;;;;;;;20.00;3.00;;;4.80;99.90;;;;;;4949438;29;20134;-72
2022/01/21 12:11:28;;;;;;;16.77;3.80;;;4.90;99.90;;;;;;4930088;29;20060;-71
2022/01/21 12:13:54;;;;;;;17.52;2.50;;;4.80;99.90;;;;;;4931011;29;20047;-76
2022/01/21 12:16:53;;;;;;;13.50;2.80;;;4.80;99.90;;;;;;4950523;29;20090;-73
2022/01/21 12:19:32;;;;;;;16.60;3.10;;;4.80;99.90;;;;;;4948175;29;20051;-76
2022/01/21 12:22:13;;;;;;;15.40;2.38;;;4.90;99.90;;;;;;4931040;29;20133;-77
2022/01/21 12:24:48;;;;;;;11.98;2.30;;;4.90;99.90;;;;;;4946548;29;20031;-78
2022/01/21 12:27:15;;;;;;;18.10;2.90;;;5.00;99.90;;;;;;4950341;29;20036;-74
2022/01/21 12:29:41;;;;;;;20.25;3.05;;;5.10;99.90;;;;;;4948718;29;20459;-76
2022/01/21 12:32:23;;;;;;;17.63;2.88;;;5.20;99.90;;;;;;4951414;28;20564;-74
2022/01/21 12:34:58;;;;;;;16.20;2.58;;;5.20;99.90;;;;;;4955627;29;20051;-74
2022/01/21 12:37:37;;;;;;;13.80;2.53;;;5.20;99.90;;;;;;4955241;29;20094;-75
2022/01/21 12:40:03;;;;;;;14.23;2.28;;;5.30;99.90;;;;;;4952491;29;20047;-69
2022/01/21 12:42:35;;;;;;;17.20;3.00;;;5.30;99.90;;;;;;4952833;29;20376;-71
2022/01/21 12:45:03;;;;;;;14.18;2.60;;;5.30;99.90;;;;;;4952779;29;20055;-73
2022/01/21 12:47:30;;;;;;;14.93;2.70;;;5.40;99.90;;;;;;4934439;29;20130;-74
2022/01/21 12:49:58;;;;;;;15.50;3.47;;;5.40;99.90;;;;;;4953566;29;20130;-70
2022/01/21 12:52:50;;;;;;;19.58;3.28;;;5.40;99.90;;;;;;4932670;29;20155;-75
2022/01/21 12:58:09;;;;;;;;;;;5.60;99.90;;;;;;4951808;29;20055;-74
2022/01/21 13:00:38;;;;;;;11.85;1.92;;;5.80;99.90;;;;;;4934749;29;19918;-72
2022/01/21 13:03:13;;;;;;;13.13;1.92;;;5.80;99.90;;;;;;4952135;29;20043;-73
2022/01/21 13:05:44;;;;;;;10.00;1.88;;;5.80;99.90;;;;;;4934154;29;20438;-73
2022/01/21 13:08:37;;;;;;;11.63;2.15;;;5.90;99.90;;;;;;4948132;29;20142;-73
2022/01/21 13:11:23;;;;;;;11.57;1.73;;;5.90;99.90;;;;;;4947112;29;20057;-74
2022/01/21 13:14:22;;;;;;;10.10;2.05;;;5.90;99.90;;;;;;4945550;29;20416;-72
2022/01/21 13:16:58;;;;;;;12.43;1.65;;;6.00;99.90;;;;;;4945528;29;20118;-73
2022/01/21 13:19:24;;;;;;;14.73;1.92;;;6.00;99.90;;;;;;4950437;29;20057;-69
2022/01/21 13:21:50;;;;;;;14.98;2.17;;;6.80;99.90;;;;;;4953880;29;20047;-72
2022/01/21 13:24:30;;;;;;;11.20;1.90;;;6.00;99.90;;;;;;4952537;29;20419;-75
2022/01/21 13:26:56;;;;;;;9.63;1.65;;;6.00;99.90;;;;;;4936237;29;20070;-72
2022/01/21 13:29:35;;;;;;;11.88;2.08;;;6.00;99.90;;;;;;4935810;29;20499;-72
2022/01/21 13:32:03;;;;;;;15.52;2.05;;;6.00;99.90;;;;;;4937453;29;20608;-71
2022/01/21 13:34:30;;;;;;;14.48;2.13;;;6.10;99.90;;;;;;4951743;29;20047;-70
2022/01/21 13:37:03;;;;;;;13.00;1.70;;;6.10;99.90;;;;;;4935962;29;20046;-72
2022/01/21 13:39:35;;;;;;;11.23;1.73;;;6.10;99.90;;;;;;4934504;29;20179;-70
2022/01/21 13:42:10;;;;;;;;;;;6.10;99.90;;;;;;4953030;28;20472;-72
2022/01/21 13:44:44;;;;;;;12.27;2.10;;;6.10;99.90;;;;;;4933329;29;20054;-74
2022/01/21 13:47:45;;;;;;;9.90;2.00;;;6.20;99.90;;;;;;4951538;29;20055;-73
2022/01/21 13:50:22;;;;;;;13.07;1.80;;;6.20;99.90;;;;;;4848109;29;20118;-68
2022/01/21 13:52:55;;;;;;;18.05;2.35;;;6.20;99.90;;;;;;4863994;29;20053;-75
2022/01/21 13:55:38;;;;;;;13.73;1.83;;;6.20;99.90;;;;;;4867776;29;20026;-74